sensor_id;sensor_type;location;lat;lon;timestamp;P1;durP1;ratioP1;P2;durP2;ratioP2
76495;SDS011;65329;52.544;4.662;2023-04-03T00:00:46;2.20;;;0.82;;
76495;SDS011;65329;52.544;4.662;2023-04-03T00:06:33;1.05;;;0.70;;
76495;SDS011;65329;52.544;4.662;2023-04-03T00:09:01;2.55;;;0.93;;
76495;SDS011;65329;52.544;4.662;2023-04-03T00:11:28;3.08;;;0.90;;
76495;SDS011;65329;52.544;4.662;2023-04-03T00:13:56;1.27;;;0.68;;
76495;SDS011;65329;52.544;4.662;2023-04-03T00:16:23;1.63;;;0.95;;
76495;SDS011;65329;52.544;4.662;2023-04-03T00:18:50;2.55;;;0.90;;
76495;SDS011;65329;52.544;4.662;2023-04-03T00:21:17;2.60;;;1.10;;
76495;SDS011;65329;52.544;4.662;2023-04-03T00:23:48;2.33;;;1.08;;
76495;SDS011;65329;52.544;4.662;2023-04-03T00:26:14;2.28;;;1.20;;
76495;SDS011;65329;52.544;4.662;2023-04-03T00:28:42;1.10;;;0.70;;
76495;SDS011;65329;52.544;4.662;2023-04-03T00:31:09;1.58;;;0.95;;
76495;SDS011;65329;52.544;4.662;2023-04-03T00:33:36;3.22;;;1.40;;
76495;SDS011;65329;52.544;4.662;2023-04-03T00:36:06;1.77;;;0.93;;
76495;SDS011;65329;52.544;4.662;2023-04-03T00:38:43;2.80;;;1.27;;
76495;SDS011;65329;52.544;4.662;2023-04-03T00:41:11;1.40;;;1.00;;
76495;SDS011;65329;52.544;4.662;2023-04-03T00:43:44;4.10;;;1.02;;
76495;SDS011;65329;52.544;4.662;2023-04-03T00:46:15;3.47;;;1.40;;
76495;SDS011;65329;52.544;4.662;2023-04-03T00:48:46;2.35;;;1.20;;
76495;SDS011;65329;52.544;4.662;2023-04-03T00:51:18;2.28;;;1.05;;
76495;SDS011;65329;52.544;4.662;2023-04-03T00:53:54;2.42;;;0.90;;
76495;SDS011;65329;52.544;4.662;2023-04-03T00:56:23;2.10;;;0.95;;
76495;SDS011;65329;52.544;4.662;2023-04-03T00:58:57;2.88;;;0.80;;
76495;SDS011;65329;52.544;4.662;2023-04-03T01:01:28;1.67;;;0.70;;
76495;SDS011;65329;52.544;4.662;2023-04-03T01:03:56;2.38;;;1.20;;
76495;SDS011;65329;52.544;4.662;2023-04-03T01:06:25;4.32;;;1.08;;
76495;SDS011;65329;52.544;4.662;2023-04-03T01:08:52;2.35;;;0.80;;
76495;SDS011;65329;52.544;4.662;2023-04-03T01:11:24;2.47;;;1.15;;
76495;SDS011;65329;52.544;4.662;2023-04-03T01:13:52;3.83;;;1.42;;
76495;SDS011;65329;52.544;4.662;2023-04-03T01:16:19;1.52;;;0.73;;
76495;SDS011;65329;52.544;4.662;2023-04-03T01:18:46;1.73;;;0.93;;
76495;SDS011;65329;52.544;4.662;2023-04-03T01:26:44;5.70;;;1.33;;
76495;SDS011;65329;52.544;4.662;2023-04-03T01:29:18;1.52;;;0.98;;
76495;SDS011;65329;52.544;4.662;2023-04-03T01:34:18;2.30;;;0.90;;
76495;SDS011;65329;52.544;4.662;2023-04-03T01:36:48;4.15;;;1.08;;
76495;SDS011;65329;52.544;4.662;2023-04-03T01:39:39;3.05;;;1.30;;
76495;SDS011;65329;52.544;4.662;2023-04-03T01:42:06;3.70;;;1.10;;
76495;SDS011;65329;52.544;4.662;2023-04-03T01:44:38;1.75;;;1.20;;
76495;SDS011;65329;52.544;4.662;2023-04-03T01:47:07;2.05;;;1.02;;
76495;SDS011;65329;52.544;4.662;2023-04-03T01:49:40;1.90;;;1.05;;
76495;SDS011;65329;52.544;4.662;2023-04-03T01:52:08;2.58;;;1.10;;
76495;SDS011;65329;52.544;4.662;2023-04-03T01:54:34;2.70;;;1.00;;
76495;SDS011;65329;52.544;4.662;2023-04-03T01:57:02;2.42;;;1.30;;
76495;SDS011;65329;52.544;4.662;2023-04-03T01:59:29;2.58;;;1.00;;
76495;SDS011;65329;52.544;4.662;2023-04-03T02:01:56;3.70;;;0.90;;
76495;SDS011;65329;52.544;4.662;2023-04-03T02:04:23;4.15;;;1.00;;
76495;SDS011;65329;52.544;4.662;2023-04-03T02:06:50;3.15;;;1.25;;
76495;SDS011;65329;52.544;4.662;2023-04-03T02:09:18;2.42;;;0.90;;
76495;SDS011;65329;52.544;4.662;2023-04-03T02:11:55;2.30;;;1.20;;
76495;SDS011;65329;52.544;4.662;2023-04-03T02:14:22;3.00;;;1.00;;
76495;SDS011;65329;52.544;4.662;2023-04-03T02:16:50;2.55;;;0.82;;
76495;SDS011;65329;52.544;4.662;2023-04-03T02:19:17;3.10;;;0.98;;
76495;SDS011;65329;52.544;4.662;2023-04-03T02:21:43;2.58;;;1.15;;
76495;SDS011;65329;52.544;4.662;2023-04-03T02:24:11;2.35;;;1.15;;
76495;SDS011;65329;52.544;4.662;2023-04-03T02:26:38;1.10;;;0.70;;
76495;SDS011;65329;52.544;4.662;2023-04-03T02:29:05;2.95;;;1.00;;
76495;SDS011;65329;52.544;4.662;2023-04-03T02:31:34;3.80;;;1.10;;
76495;SDS011;65329;52.544;4.662;2023-04-03T02:34:01;2.70;;;1.63;;
76495;SDS011;65329;52.544;4.662;2023-04-03T02:36:29;3.45;;;0.88;;
76495;SDS011;65329;52.544;4.662;2023-04-03T02:39:02;1.98;;;1.00;;
76495;SDS011;65329;52.544;4.662;2023-04-03T02:41:31;2.97;;;1.50;;
76495;SDS011;65329;52.544;4.662;2023-04-03T02:44:06;3.33;;;1.55;;
76495;SDS011;65329;52.544;4.662;2023-04-03T02:46:33;2.88;;;1.00;;
76495;SDS011;65329;52.544;4.662;2023-04-03T02:49:01;3.22;;;1.38;;
76495;SDS011;65329;52.544;4.662;2023-04-03T02:51:28;3.53;;;1.15;;
76495;SDS011;65329;52.544;4.662;2023-04-03T02:53:54;5.20;;;1.27;;
76495;SDS011;65329;52.544;4.662;2023-04-03T02:56:25;2.42;;;1.10;;
76495;SDS011;65329;52.544;4.662;2023-04-03T02:58:53;1.88;;;1.08;;
76495;SDS011;65329;52.544;4.662;2023-04-03T03:01:21;3.95;;;1.45;;
76495;SDS011;65329;52.544;4.662;2023-04-03T03:03:54;2.30;;;1.00;;
76495;SDS011;65329;52.544;4.662;2023-04-03T03:06:21;4.13;;;1.20;;
76495;SDS011;65329;52.544;4.662;2023-04-03T03:08:48;3.33;;;1.20;;
76495;SDS011;65329;52.544;4.662;2023-04-03T03:11:15;2.67;;;1.02;;
76495;SDS011;65329;52.544;4.662;2023-04-03T03:13:41;1.55;;;1.00;;
76495;SDS011;65329;52.544;4.662;2023-04-03T03:16:08;2.40;;;1.00;;
76495;SDS011;65329;52.544;4.662;2023-04-03T03:18:45;4.80;;;1.25;;
76495;SDS011;65329;52.544;4.662;2023-04-03T03:21:12;2.92;;;1.52;;
76495;SDS011;65329;52.544;4.662;2023-04-03T03:23:38;1.60;;;1.20;;
76495;SDS011;65329;52.544;4.662;2023-04-03T03:26:06;3.05;;;1.27;;
76495;SDS011;65329;52.544;4.662;2023-04-03T03:28:33;2.22;;;0.85;;
76495;SDS011;65329;52.544;4.662;2023-04-03T03:31:00;2.90;;;1.02;;
76495;SDS011;65329;52.544;4.662;2023-04-03T03:33:27;2.33;;;1.20;;
76495;SDS011;65329;52.544;4.662;2023-04-03T03:35:54;3.08;;;1.48;;
76495;SDS011;65329;52.544;4.662;2023-04-03T03:38:21;1.88;;;1.08;;
76495;SDS011;65329;52.544;4.662;2023-04-03T03:40:50;2.47;;;0.75;;
76495;SDS011;65329;52.544;4.662;2023-04-03T03:43:19;2.20;;;1.00;;
76495;SDS011;65329;52.544;4.662;2023-04-03T03:45:51;3.08;;;1.00;;
76495;SDS011;65329;52.544;4.662;2023-04-03T03:48:19;3.38;;;1.30;;
76495;SDS011;65329;52.544;4.662;2023-04-03T03:50:46;3.20;;;0.80;;
76495;SDS011;65329;52.544;4.662;2023-04-03T03:53:13;1.45;;;1.13;;
76495;SDS011;65329;52.544;4.662;2023-04-03T03:55:40;4.32;;;1.38;;
76495;SDS011;65329;52.544;4.662;2023-04-03T03:58:07;2.67;;;1.30;;
76495;SDS011;65329;52.544;4.662;2023-04-03T04:00:34;6.28;;;1.20;;
76495;SDS011;65329;52.544;4.662;2023-04-03T04:03:01;3.17;;;1.15;;
76495;SDS011;65329;52.544;4.662;2023-04-03T04:05:30;3.70;;;2.05;;
76495;SDS011;65329;52.544;4.662;2023-04-03T04:07:58;2.00;;;1.33;;
76495;SDS011;65329;52.544;4.662;2023-04-03T04:10:26;2.78;;;1.00;;
76495;SDS011;65329;52.544;4.662;2023-04-03T04:12:53;1.77;;;0.88;;
76495;SDS011;65329;52.544;4.662;2023-04-03T04:15:25;4.28;;;1.50;;
76495;SDS011;65329;52.544;4.662;2023-04-03T04:17:53;3.85;;;1.40;;
76495;SDS011;65329;52.544;4.662;2023-04-03T04:20:26;3.38;;;1.45;;
76495;SDS011;65329;52.544;4.662;2023-04-03T04:22:52;2.85;;;1.35;;
76495;SDS011;65329;52.544;4.662;2023-04-03T04:25:21;4.35;;;1.27;;
76495;SDS011;65329;52.544;4.662;2023-04-03T04:27:49;6.57;;;1.60;;
76495;SDS011;65329;52.544;4.662;2023-04-03T04:30:16;4.82;;;1.20;;
76495;SDS011;65329;52.544;4.662;2023-04-03T04:32:45;2.95;;;1.33;;
76495;SDS011;65329;52.544;4.662;2023-04-03T04:35:12;4.72;;;1.60;;
76495;SDS011;65329;52.544;4.662;2023-04-03T04:37:44;5.07;;;1.50;;
76495;SDS011;65329;52.544;4.662;2023-04-03T04:40:13;3.10;;;1.25;;
76495;SDS011;65329;52.544;4.662;2023-04-03T04:42:39;3.10;;;1.55;;
76495;SDS011;65329;52.544;4.662;2023-04-03T04:45:08;3.40;;;1.30;;
76495;SDS011;65329;52.544;4.662;2023-04-03T04:47:41;2.15;;;1.40;;
76495;SDS011;65329;52.544;4.662;2023-04-03T04:50:09;3.88;;;1.50;;
76495;SDS011;65329;52.544;4.662;2023-04-03T04:52:36;2.80;;;1.42;;
76495;SDS011;65329;52.544;4.662;2023-04-03T04:55:03;4.85;;;1.67;;
76495;SDS011;65329;52.544;4.662;2023-04-03T04:57:30;3.10;;;1.23;;
76495;SDS011;65329;52.544;4.662;2023-04-03T04:59:58;5.22;;;1.42;;
76495;SDS011;65329;52.544;4.662;2023-04-03T05:02:25;3.65;;;1.52;;
76495;SDS011;65329;52.544;4.662;2023-04-03T05:05:07;2.67;;;1.20;;
76495;SDS011;65329;52.544;4.662;2023-04-03T05:07:34;2.10;;;1.25;;
76495;SDS011;65329;52.544;4.662;2023-04-03T05:10:02;5.80;;;1.67;;
76495;SDS011;65329;52.544;4.662;2023-04-03T05:12:31;2.63;;;1.00;;
76495;SDS011;65329;52.544;4.662;2023-04-03T05:15:02;2.72;;;1.15;;
76495;SDS011;65329;52.544;4.662;2023-04-03T05:17:32;2.25;;;1.48;;
76495;SDS011;65329;52.544;4.662;2023-04-03T05:19:59;2.85;;;1.75;;
76495;SDS011;65329;52.544;4.662;2023-04-03T05:22:52;2.08;;;1.35;;
76495;SDS011;65329;52.544;4.662;2023-04-03T05:25:20;5.70;;;1.30;;
76495;SDS011;65329;52.544;4.662;2023-04-03T05:27:53;6.50;;;1.67;;
76495;SDS011;65329;52.544;4.662;2023-04-03T05:30:20;2.75;;;1.48;;
76495;SDS011;65329;52.544;4.662;2023-04-03T05:32:47;4.60;;;1.50;;
76495;SDS011;65329;52.544;4.662;2023-04-03T05:35:25;1.92;;;1.35;;
76495;SDS011;65329;52.544;4.662;2023-04-03T05:38:00;3.72;;;1.40;;
76495;SDS011;65329;52.544;4.662;2023-04-03T05:40:28;2.40;;;1.38;;
76495;SDS011;65329;52.544;4.662;2023-04-03T05:42:55;3.15;;;1.70;;
76495;SDS011;65329;52.544;4.662;2023-04-03T05:45:24;4.13;;;1.67;;
76495;SDS011;65329;52.544;4.662;2023-04-03T05:47:52;2.58;;;1.63;;
76495;SDS011;65329;52.544;4.662;2023-04-03T05:50:19;5.22;;;1.60;;
76495;SDS011;65329;52.544;4.662;2023-04-03T05:52:49;3.28;;;1.50;;
76495;SDS011;65329;52.544;4.662;2023-04-03T05:55:32;3.78;;;1.50;;
76495;SDS011;65329;52.544;4.662;2023-04-03T05:57:59;4.38;;;1.50;;
76495;SDS011;65329;52.544;4.662;2023-04-03T06:00:25;3.28;;;1.40;;
76495;SDS011;65329;52.544;4.662;2023-04-03T06:02:59;2.70;;;1.00;;
76495;SDS011;65329;52.544;4.662;2023-04-03T06:05:28;4.25;;;1.98;;
76495;SDS011;65329;52.544;4.662;2023-04-03T06:07:56;4.80;;;1.70;;
76495;SDS011;65329;52.544;4.662;2023-04-03T06:10:23;2.50;;;0.98;;
76495;SDS011;65329;52.544;4.662;2023-04-03T06:12:50;4.22;;;1.60;;
76495;SDS011;65329;52.544;4.662;2023-04-03T06:15:18;3.75;;;1.40;;
76495;SDS011;65329;52.544;4.662;2023-04-03T06:17:44;1.65;;;1.08;;
76495;SDS011;65329;52.544;4.662;2023-04-03T06:20:13;2.47;;;1.20;;
76495;SDS011;65329;52.544;4.662;2023-04-03T06:22:40;7.22;;;1.85;;
76495;SDS011;65329;52.544;4.662;2023-04-03T06:25:10;4.47;;;1.70;;
76495;SDS011;65329;52.544;4.662;2023-04-03T06:27:38;2.95;;;1.90;;
76495;SDS011;65329;52.544;4.662;2023-04-03T06:30:06;3.67;;;1.40;;
76495;SDS011;65329;52.544;4.662;2023-04-03T06:32:33;4.10;;;1.70;;
76495;SDS011;65329;52.544;4.662;2023-04-03T06:35:00;2.28;;;1.27;;
76495;SDS011;65329;52.544;4.662;2023-04-03T06:37:27;3.20;;;1.83;;
76495;SDS011;65329;52.544;4.662;2023-04-03T06:39:55;2.63;;;1.17;;
76495;SDS011;65329;52.544;4.662;2023-04-03T06:42:24;4.07;;;1.55;;
76495;SDS011;65329;52.544;4.662;2023-04-03T06:44:59;4.00;;;1.55;;
76495;SDS011;65329;52.544;4.662;2023-04-03T06:47:26;5.32;;;1.80;;
76495;SDS011;65329;52.544;4.662;2023-04-03T06:49:59;2.90;;;1.00;;
76495;SDS011;65329;52.544;4.662;2023-04-03T06:52:29;4.03;;;1.48;;
76495;SDS011;65329;52.544;4.662;2023-04-03T06:54:57;3.05;;;1.25;;
76495;SDS011;65329;52.544;4.662;2023-04-03T06:57:27;3.17;;;0.98;;
76495;SDS011;65329;52.544;4.662;2023-04-03T07:00:02;4.10;;;1.27;;
76495;SDS011;65329;52.544;4.662;2023-04-03T07:02:40;2.25;;;0.88;;
76495;SDS011;65329;52.544;4.662;2023-04-03T07:05:12;5.60;;;1.17;;
76495;SDS011;65329;52.544;4.662;2023-04-03T07:07:56;2.30;;;1.13;;
76495;SDS011;65329;52.544;4.662;2023-04-03T07:13:46;2.22;;;0.90;;
76495;SDS011;65329;52.544;4.662;2023-04-03T07:16:13;6.30;;;1.27;;
76495;SDS011;65329;52.544;4.662;2023-04-03T07:18:51;3.47;;;0.98;;
76495;SDS011;65329;52.544;4.662;2023-04-03T07:21:33;3.15;;;1.08;;
76495;SDS011;65329;52.544;4.662;2023-04-03T07:24:02;4.63;;;1.30;;
76495;SDS011;65329;52.544;4.662;2023-04-03T07:26:29;4.93;;;1.35;;
76495;SDS011;65329;52.544;4.662;2023-04-03T07:29:00;6.05;;;1.30;;
76495;SDS011;65329;52.544;4.662;2023-04-03T07:31:26;3.13;;;0.90;;
76495;SDS011;65329;52.544;4.662;2023-04-03T07:33:56;2.72;;;1.20;;
76495;SDS011;65329;52.544;4.662;2023-04-03T07:36:23;2.53;;;1.20;;
76495;SDS011;65329;52.544;4.662;2023-04-03T07:38:56;2.78;;;1.20;;
76495;SDS011;65329;52.544;4.662;2023-04-03T07:41:25;3.70;;;1.20;;
76495;SDS011;65329;52.544;4.662;2023-04-03T07:43:56;2.95;;;1.10;;
76495;SDS011;65329;52.544;4.662;2023-04-03T07:46:23;4.22;;;1.13;;
76495;SDS011;65329;52.544;4.662;2023-04-03T07:48:50;2.58;;;0.90;;
76495;SDS011;65329;52.544;4.662;2023-04-03T07:51:16;3.13;;;1.33;;
76495;SDS011;65329;52.544;4.662;2023-04-03T07:53:43;2.53;;;1.17;;
76495;SDS011;65329;52.544;4.662;2023-04-03T07:56:10;3.25;;;1.05;;
76495;SDS011;65329;52.544;4.662;2023-04-03T07:58:41;2.97;;;1.30;;
76495;SDS011;65329;52.544;4.662;2023-04-03T08:01:08;1.70;;;1.00;;
76495;SDS011;65329;52.544;4.662;2023-04-03T08:03:35;5.28;;;1.50;;
76495;SDS011;65329;52.544;4.662;2023-04-03T08:06:04;2.53;;;0.80;;
76495;SDS011;65329;52.544;4.662;2023-04-03T08:08:37;2.10;;;1.02;;
76495;SDS011;65329;52.544;4.662;2023-04-03T08:11:03;5.07;;;1.40;;
76495;SDS011;65329;52.544;4.662;2023-04-03T08:13:31;2.15;;;1.00;;
76495;SDS011;65329;52.544;4.662;2023-04-03T08:16:10;3.28;;;1.10;;
76495;SDS011;65329;52.544;4.662;2023-04-03T08:18:47;3.25;;;1.00;;
76495;SDS011;65329;52.544;4.662;2023-04-03T08:21:14;4.03;;;1.50;;
76495;SDS011;65329;52.544;4.662;2023-04-03T08:23:43;4.55;;;1.70;;
76495;SDS011;65329;52.544;4.662;2023-04-03T08:26:28;3.30;;;1.30;;
76495;SDS011;65329;52.544;4.662;2023-04-03T08:28:55;2.72;;;1.00;;
76495;SDS011;65329;52.544;4.662;2023-04-03T08:31:25;3.35;;;1.40;;
76495;SDS011;65329;52.544;4.662;2023-04-03T08:33:53;4.07;;;1.42;;
76495;SDS011;65329;52.544;4.662;2023-04-03T08:36:23;4.40;;;1.45;;
76495;SDS011;65329;52.544;4.662;2023-04-03T08:38:50;3.58;;;0.90;;
76495;SDS011;65329;52.544;4.662;2023-04-03T08:41:37;2.47;;;1.08;;
76495;SDS011;65329;52.544;4.662;2023-04-03T08:49:43;1.33;;;0.80;;
76495;SDS011;65329;52.544;4.662;2023-04-03T08:52:17;2.13;;;1.20;;
76495;SDS011;65329;52.544;4.662;2023-04-03T08:54:54;2.03;;;1.20;;
76495;SDS011;65329;52.544;4.662;2023-04-03T08:57:35;2.80;;;0.95;;
76495;SDS011;65329;52.544;4.662;2023-04-03T09:00:19;3.78;;;1.30;;
76495;SDS011;65329;52.544;4.662;2023-04-03T09:02:47;2.65;;;1.10;;
76495;SDS011;65329;52.544;4.662;2023-04-03T09:10:43;2.72;;;1.10;;
76495;SDS011;65329;52.544;4.662;2023-04-03T09:16:00;2.17;;;1.20;;
76495;SDS011;65329;52.544;4.662;2023-04-03T09:18:45;2.25;;;0.90;;
76495;SDS011;65329;52.544;4.662;2023-04-03T09:21:39;2.60;;;1.20;;
76495;SDS011;65329;52.544;4.662;2023-04-03T09:24:36;2.88;;;1.10;;
76495;SDS011;65329;52.544;4.662;2023-04-03T09:27:05;2.22;;;0.80;;
76495;SDS011;65329;52.544;4.662;2023-04-03T09:29:39;2.47;;;0.93;;
76495;SDS011;65329;52.544;4.662;2023-04-03T09:32:22;2.22;;;1.05;;
76495;SDS011;65329;52.544;4.662;2023-04-03T09:35:34;1.85;;;0.70;;
76495;SDS011;65329;52.544;4.662;2023-04-03T09:38:16;2.30;;;0.50;;
76495;SDS011;65329;52.544;4.662;2023-04-03T09:43:37;1.75;;;0.80;;
76495;SDS011;65329;52.544;4.662;2023-04-03T09:46:22;1.40;;;0.73;;
76495;SDS011;65329;52.544;4.662;2023-04-03T09:48:59;1.52;;;0.57;;
76495;SDS011;65329;52.544;4.662;2023-04-03T09:51:37;1.10;;;0.73;;
76495;SDS011;65329;52.544;4.662;2023-04-03T09:57:12;3.25;;;0.45;;
76495;SDS011;65329;52.544;4.662;2023-04-03T10:00:05;3.42;;;0.55;;
76495;SDS011;65329;52.544;4.662;2023-04-03T10:06:21;1.63;;;0.70;;
76495;SDS011;65329;52.544;4.662;2023-04-03T10:11:57;3.92;;;1.00;;
76495;SDS011;65329;52.544;4.662;2023-04-03T10:14:39;1.85;;;0.85;;
76495;SDS011;65329;52.544;4.662;2023-04-03T10:20:17;1.13;;;0.57;;
76495;SDS011;65329;52.544;4.662;2023-04-03T10:25:56;1.20;;;0.63;;
76495;SDS011;65329;52.544;4.662;2023-04-03T10:44:24;0.75;;;0.40;;
76495;SDS011;65329;52.544;4.662;2023-04-03T10:51:48;0.63;;;0.43;;
76495;SDS011;65329;52.544;4.662;2023-04-03T10:57:36;1.73;;;0.50;;
76495;SDS011;65329;52.544;4.662;2023-04-03T11:03:11;1.40;;;0.40;;
76495;SDS011;65329;52.544;4.662;2023-04-03T11:05:43;0.98;;;0.38;;
76495;SDS011;65329;52.544;4.662;2023-04-03T11:08:12;1.15;;;0.65;;
76495;SDS011;65329;52.544;4.662;2023-04-03T11:10:49;1.50;;;0.40;;
76495;SDS011;65329;52.544;4.662;2023-04-03T11:13:42;1.00;;;0.40;;
76495;SDS011;65329;52.544;4.662;2023-04-03T11:16:11;1.42;;;0.60;;
76495;SDS011;65329;52.544;4.662;2023-04-03T11:29:49;0.60;;;0.40;;
76495;SDS011;65329;52.544;4.662;2023-04-03T11:32:46;0.35;;;0.30;;
76495;SDS011;65329;52.544;4.662;2023-04-03T11:35:16;0.98;;;0.40;;
76495;SDS011;65329;52.544;4.662;2023-04-03T11:37:50;1.70;;;0.35;;
76495;SDS011;65329;52.544;4.662;2023-04-03T11:40:36;0.57;;;0.20;;
76495;SDS011;65329;52.544;4.662;2023-04-03T11:43:20;1.83;;;0.50;;
76495;SDS011;65329;52.544;4.662;2023-04-03T11:48:50;1.50;;;0.20;;
76495;SDS011;65329;52.544;4.662;2023-04-03T11:51:39;1.75;;;0.50;;
76495;SDS011;65329;52.544;4.662;2023-04-03T11:57:45;0.93;;;0.43;;
76495;SDS011;65329;52.544;4.662;2023-04-03T12:01:09;1.98;;;0.40;;
76495;SDS011;65329;52.544;4.662;2023-04-03T12:03:56;1.00;;;0.57;;
76495;SDS011;65329;52.544;4.662;2023-04-03T12:08:54;1.38;;;0.30;;
76495;SDS011;65329;52.544;4.662;2023-04-03T12:11:28;1.02;;;0.40;;
76495;SDS011;65329;52.544;4.662;2023-04-03T12:17:26;1.15;;;0.30;;
76495;SDS011;65329;52.544;4.662;2023-04-03T12:20:01;2.33;;;0.30;;
76495;SDS011;65329;52.544;4.662;2023-04-03T12:30:27;0.90;;;0.28;;
76495;SDS011;65329;52.544;4.662;2023-04-03T12:48:20;0.20;;;0.20;;
76495;SDS011;65329;52.544;4.662;2023-04-03T12:51:03;1.90;;;0.32;;
76495;SDS011;65329;52.544;4.662;2023-04-03T12:59:56;1.65;;;0.60;;
76495;SDS011;65329;52.544;4.662;2023-04-03T13:02:40;0.50;;;0.38;;
76495;SDS011;65329;52.544;4.662;2023-04-03T13:05:14;1.60;;;0.50;;
76495;SDS011;65329;52.544;4.662;2023-04-03T13:07:42;1.08;;;0.50;;
76495;SDS011;65329;52.544;4.662;2023-04-03T13:13:34;1.90;;;0.80;;
76495;SDS011;65329;52.544;4.662;2023-04-03T13:16:23;2.58;;;0.40;;
76495;SDS011;65329;52.544;4.662;2023-04-03T13:19:01;1.13;;;0.40;;
76495;SDS011;65329;52.544;4.662;2023-04-03T13:21:37;1.42;;;0.25;;
76495;SDS011;65329;52.544;4.662;2023-04-03T13:27:32;1.27;;;0.38;;
76495;SDS011;65329;52.544;4.662;2023-04-03T13:39:20;1.27;;;0.45;;
76495;SDS011;65329;52.544;4.662;2023-04-03T13:41:49;1.42;;;0.80;;
76495;SDS011;65329;52.544;4.662;2023-04-03T13:46:57;0.88;;;0.45;;
76495;SDS011;65329;52.544;4.662;2023-04-03T13:49:45;1.17;;;0.40;;
76495;SDS011;65329;52.544;4.662;2023-04-03T13:58:38;0.80;;;0.50;;
76495;SDS011;65329;52.544;4.662;2023-04-03T14:01:22;1.30;;;0.40;;
76495;SDS011;65329;52.544;4.662;2023-04-03T14:04:17;1.42;;;0.47;;
76495;SDS011;65329;52.544;4.662;2023-04-03T14:06:45;1.50;;;0.43;;
76495;SDS011;65329;52.544;4.662;2023-04-03T14:09:36;1.20;;;0.50;;
76495;SDS011;65329;52.544;4.662;2023-04-03T14:12:16;1.90;;;0.60;;
76495;SDS011;65329;52.544;4.662;2023-04-03T14:14:57;2.22;;;1.27;;
76495;SDS011;65329;52.544;4.662;2023-04-03T14:17:29;2.83;;;0.82;;
76495;SDS011;65329;52.544;4.662;2023-04-03T14:19:56;1.95;;;0.88;;
76495;SDS011;65329;52.544;4.662;2023-04-03T14:22:29;1.13;;;0.68;;
76495;SDS011;65329;52.544;4.662;2023-04-03T14:24:56;1.73;;;0.75;;
76495;SDS011;65329;52.544;4.662;2023-04-03T14:30:25;3.50;;;0.60;;
76495;SDS011;65329;52.544;4.662;2023-04-03T14:32:51;0.75;;;0.50;;
76495;SDS011;65329;52.544;4.662;2023-04-03T14:38:30;1.35;;;0.65;;
76495;SDS011;65329;52.544;4.662;2023-04-03T14:41:07;2.00;;;0.77;;
76495;SDS011;65329;52.544;4.662;2023-04-03T14:43:44;1.45;;;0.60;;
76495;SDS011;65329;52.544;4.662;2023-04-03T14:46:18;1.80;;;0.77;;
76495;SDS011;65329;52.544;4.662;2023-04-03T14:48:50;1.65;;;0.60;;
76495;SDS011;65329;52.544;4.662;2023-04-03T14:54:22;1.00;;;0.60;;
76495;SDS011;65329;52.544;4.662;2023-04-03T14:57:17;1.13;;;0.57;;
76495;SDS011;65329;52.544;4.662;2023-04-03T15:06:29;2.60;;;0.30;;
76495;SDS011;65329;52.544;4.662;2023-04-03T15:09:02;1.63;;;0.70;;
76495;SDS011;65329;52.544;4.662;2023-04-03T15:11:59;1.42;;;0.50;;
76495;SDS011;65329;52.544;4.662;2023-04-03T15:14:34;1.58;;;0.73;;
76495;SDS011;65329;52.544;4.662;2023-04-03T15:17:23;1.30;;;0.88;;
76495;SDS011;65329;52.544;4.662;2023-04-03T15:19:53;1.50;;;0.50;;
76495;SDS011;65329;52.544;4.662;2023-04-03T15:22:20;3.90;;;0.57;;
76495;SDS011;65329;52.544;4.662;2023-04-03T15:27:51;1.88;;;1.08;;
76495;SDS011;65329;52.544;4.662;2023-04-03T15:30:19;1.48;;;0.77;;
76495;SDS011;65329;52.544;4.662;2023-04-03T15:32:56;2.80;;;0.63;;
76495;SDS011;65329;52.544;4.662;2023-04-03T15:35:35;2.55;;;0.50;;
76495;SDS011;65329;52.544;4.662;2023-04-03T15:38:14;1.52;;;0.80;;
76495;SDS011;65329;52.544;4.662;2023-04-03T15:40:41;2.22;;;0.55;;
76495;SDS011;65329;52.544;4.662;2023-04-03T15:43:10;3.38;;;0.50;;
76495;SDS011;65329;52.544;4.662;2023-04-03T15:45:37;2.63;;;0.80;;
76495;SDS011;65329;52.544;4.662;2023-04-03T15:48:21;4.13;;;0.75;;
76495;SDS011;65329;52.544;4.662;2023-04-03T15:50:51;2.97;;;0.80;;
76495;SDS011;65329;52.544;4.662;2023-04-03T15:53:23;1.08;;;0.40;;
76495;SDS011;65329;52.544;4.662;2023-04-03T15:55:50;3.00;;;0.90;;
76495;SDS011;65329;52.544;4.662;2023-04-03T15:58:32;1.52;;;0.68;;
76495;SDS011;65329;52.544;4.662;2023-04-03T16:00:59;2.95;;;0.75;;
76495;SDS011;65329;52.544;4.662;2023-04-03T16:03:28;1.02;;;0.50;;
76495;SDS011;65329;52.544;4.662;2023-04-03T16:06:00;1.77;;;0.60;;
76495;SDS011;65329;52.544;4.662;2023-04-03T16:08:33;1.85;;;0.70;;
76495;SDS011;65329;52.544;4.662;2023-04-03T16:11:19;1.00;;;0.68;;
76495;SDS011;65329;52.544;4.662;2023-04-03T16:13:48;1.77;;;0.45;;
76495;SDS011;65329;52.544;4.662;2023-04-03T16:16:27;0.80;;;0.40;;
76495;SDS011;65329;52.544;4.662;2023-04-03T16:22:09;2.67;;;0.73;;
76495;SDS011;65329;52.544;4.662;2023-04-03T16:24:39;0.85;;;0.70;;
76495;SDS011;65329;52.544;4.662;2023-04-03T16:27:09;2.05;;;0.47;;
76495;SDS011;65329;52.544;4.662;2023-04-03T16:30:05;1.48;;;0.50;;
76495;SDS011;65329;52.544;4.662;2023-04-03T16:32:33;1.52;;;0.55;;
76495;SDS011;65329;52.544;4.662;2023-04-03T16:35:14;1.23;;;0.50;;
76495;SDS011;65329;52.544;4.662;2023-04-03T16:40:55;2.67;;;0.70;;
76495;SDS011;65329;52.544;4.662;2023-04-03T16:43:44;4.00;;;1.13;;
76495;SDS011;65329;52.544;4.662;2023-04-03T16:46:14;3.47;;;0.60;;
76495;SDS011;65329;52.544;4.662;2023-04-03T16:48:55;2.67;;;0.73;;
76495;SDS011;65329;52.544;4.662;2023-04-03T16:58:02;1.88;;;0.63;;
76495;SDS011;65329;52.544;4.662;2023-04-03T17:00:30;1.20;;;0.50;;
76495;SDS011;65329;52.544;4.662;2023-04-03T17:02:58;2.78;;;0.63;;
76495;SDS011;65329;52.544;4.662;2023-04-03T17:05:51;1.67;;;1.10;;
76495;SDS011;65329;52.544;4.662;2023-04-03T17:08:19;1.33;;;0.57;;
76495;SDS011;65329;52.544;4.662;2023-04-03T17:10:46;1.63;;;0.80;;
76495;SDS011;65329;52.544;4.662;2023-04-03T17:13:34;2.10;;;0.80;;
76495;SDS011;65329;52.544;4.662;2023-04-03T17:16:04;1.30;;;0.50;;
76495;SDS011;65329;52.544;4.662;2023-04-03T17:31:33;1.02;;;0.50;;
76495;SDS011;65329;52.544;4.662;2023-04-03T17:34:15;1.67;;;0.70;;
76495;SDS011;65329;52.544;4.662;2023-04-03T17:37:46;1.20;;;0.70;;
76495;SDS011;65329;52.544;4.662;2023-04-03T17:40:22;1.65;;;0.90;;
76495;SDS011;65329;52.544;4.662;2023-04-03T17:43:03;1.77;;;1.13;;
76495;SDS011;65329;52.544;4.662;2023-04-03T17:46:16;3.03;;;0.75;;
76495;SDS011;65329;52.544;4.662;2023-04-03T17:55:39;2.53;;;1.10;;
76495;SDS011;65329;52.544;4.662;2023-04-03T18:01:43;1.08;;;0.70;;
76495;SDS011;65329;52.544;4.662;2023-04-03T18:04:52;4.45;;;0.90;;
76495;SDS011;65329;52.544;4.662;2023-04-03T18:13:54;2.42;;;1.15;;
76495;SDS011;65329;52.544;4.662;2023-04-03T18:16:41;2.88;;;1.17;;
76495;SDS011;65329;52.544;4.662;2023-04-03T19:30:28;3.55;;;1.50;;
76495;SDS011;65329;52.544;4.662;2023-04-03T19:33:06;5.60;;;1.92;;
76495;SDS011;65329;52.544;4.662;2023-04-03T19:35:46;5.55;;;2.28;;
76495;SDS011;65329;52.544;4.662;2023-04-03T19:38:15;3.55;;;1.73;;
76495;SDS011;65329;52.544;4.662;2023-04-03T19:40:56;3.60;;;1.20;;
76495;SDS011;65329;52.544;4.662;2023-04-03T19:43:33;1.77;;;1.10;;
76495;SDS011;65329;52.544;4.662;2023-04-03T19:48:54;3.15;;;1.08;;
76495;SDS011;65329;52.544;4.662;2023-04-03T19:51:34;1.60;;;0.88;;
76495;SDS011;65329;52.544;4.662;2023-04-03T19:59:54;2.22;;;0.98;;
76495;SDS011;65329;52.544;4.662;2023-04-03T20:02:22;2.83;;;0.90;;
76495;SDS011;65329;52.544;4.662;2023-04-03T20:04:49;2.85;;;1.17;;
76495;SDS011;65329;52.544;4.662;2023-04-03T20:07:16;2.13;;;0.98;;
76495;SDS011;65329;52.544;4.662;2023-04-03T20:09:43;1.92;;;0.80;;
76495;SDS011;65329;52.544;4.662;2023-04-03T20:12:33;2.08;;;0.82;;
76495;SDS011;65329;52.544;4.662;2023-04-03T20:15:12;2.25;;;0.88;;